Lake Isabella, California
Current Conditions -  °F | °C
As of 11:55 PM on Friday 24 Oct 2014 (Local Time) from KTSP Reporting Station
Clear Clear  
Wind Chill: 64°   Ceiling: Unl
Heat Index: 64°   Visibility: 10mi
Dew Point: 39°   Wind: 6mph
Humidity: 40%   Direction: 170°S
Pressure: 30.11"   Gusts: NA
Location:  35.61°N, 118.49°W
Report Text: KTSP 250655Z AUTO 17005KT 10SM CLR 18/04 A3011 RMK AO2
Loading
Personal Weather Stations






























Interactive Weather Map
Tropical Storm Tracking
New forecast layout! Learn more

10-Day Weather Forecast

Advertisements
Track Severe Weather on mobile